createdAt,value
2023-01-10T00:01:49.982Z,99802.50
2023-01-10T00:04:16.553Z,99803.03
2023-01-10T00:06:43.117Z,99819.47
2023-01-10T00:09:10.592Z,99819.06
2023-01-10T00:11:55.633Z,99809.47
2023-01-10T00:14:22.179Z,99818.13
2023-01-10T00:16:48.729Z,99829.25
2023-01-10T00:19:15.280Z,99823.91
2023-01-10T00:21:41.844Z,99836.34
2023-01-10T00:24:20.474Z,99840.38
2023-01-10T00:26:51.194Z,99843.59
2023-01-10T00:29:23.288Z,99847.59
2023-01-10T00:31:50.423Z,99846.38
2023-01-10T00:34:17.381Z,99856.25
2023-01-10T00:36:45.552Z,99865.13
2023-01-10T00:39:12.116Z,99865.78
2023-01-10T00:41:58.016Z,99872.16
2023-01-10T00:44:24.846Z,99873.56
2023-01-10T00:46:52.960Z,99878.22
2023-01-10T00:49:19.687Z,99874.50
2023-01-10T00:51:46.256Z,99884.84
2023-01-10T00:56:58.316Z,99899.47
2023-01-10T00:59:24.939Z,99905.22
2023-01-10T01:01:52.214Z,99915.47
2023-01-10T01:04:18.910Z,99913.56
2023-01-10T01:06:47.535Z,99920.06
2023-01-10T01:09:14.699Z,99931.34
2023-01-10T01:11:41.232Z,99930.97
2023-01-10T01:14:07.759Z,99927.19
2023-01-10T01:16:34.352Z,99940.28
2023-01-10T01:19:00.857Z,99944.59
2023-01-10T01:21:28.282Z,99941.66
2023-01-10T01:23:58.627Z,99950.19
2023-01-10T01:26:25.480Z,99956.06
2023-01-10T01:28:52.558Z,99960.59
2023-01-10T01:31:19.389Z,99977.41
2023-01-10T01:33:46.560Z,99984.56
2023-01-10T01:36:13.662Z,99993.84
2023-01-10T01:38:41.261Z,100009.31
2023-01-10T01:41:28.466Z,100006.88
2023-01-10T01:44:02.935Z,100008.69
2023-01-10T01:46:30.630Z,100008.66
2023-01-10T01:48:57.392Z,100020.44
2023-01-10T01:51:29.088Z,100015.66
2023-01-10T01:54:01.331Z,100012.78
2023-01-10T01:56:34.999Z,100035.50
2023-01-10T01:59:08.372Z,100042.69
2023-01-10T02:01:38.097Z,100040.00
2023-01-10T02:04:13.373Z,100053.59
2023-01-10T02:06:41.290Z,100056.28
2023-01-10T02:09:18.279Z,100057.50
2023-01-10T02:11:45.125Z,100051.09
2023-01-10T02:14:13.707Z,100062.31
2023-01-10T02:16:40.246Z,100067.56
2023-01-10T02:19:18.473Z,100070.59
2023-01-10T02:22:23.767Z,100076.22
2023-01-10T02:25:08.984Z,100086.78
2023-01-10T02:28:12.943Z,100084.91
2023-01-10T02:31:11.464Z,100095.72
2023-01-10T02:34:13.129Z,100095.50
2023-01-10T02:37:13.066Z,100099.41
2023-01-10T02:39:51.841Z,100097.09
2023-01-10T02:42:42.618Z,100102.03
2023-01-10T02:45:38.869Z,100105.09
2023-01-10T02:48:05.641Z,100108.94
2023-01-10T02:50:45.337Z,100116.53
2023-01-10T02:53:22.861Z,100109.81
2023-01-10T02:56:07.869Z,100119.56
2023-01-10T02:58:48.172Z,100122.63
2023-01-10T03:01:56.409Z,100118.03
2023-01-10T03:04:38.540Z,100118.88
2023-01-10T03:07:05.019Z,100129.06
2023-01-10T03:09:51.537Z,100134.91
2023-01-10T03:12:25.229Z,100136.50
2023-01-10T03:14:54.361Z,100131.53
2023-01-10T03:17:23.294Z,100139.47
2023-01-10T03:19:54.692Z,100148.72
2023-01-10T03:22:24.962Z,100150.34
2023-01-10T03:24:55.865Z,100157.28
2023-01-10T03:27:25.151Z,100156.19
2023-01-10T03:29:59.828Z,100160.84
2023-01-10T03:32:30.207Z,100164.03
2023-01-10T03:34:59.680Z,100172.47
2023-01-10T03:37:42.235Z,100183.69
2023-01-10T03:40:18.757Z,100183.06
2023-01-10T03:43:19.101Z,100202.75
2023-01-10T03:45:58.776Z,100201.41
2023-01-10T03:48:30.158Z,100204.09
2023-01-10T03:51:00.293Z,100209.16
2023-01-10T03:53:26.995Z,100212.41
2023-01-10T03:55:54.607Z,100221.47
2023-01-10T03:58:21.903Z,100223.13
2023-01-10T04:00:49.206Z,100224.47
2023-01-10T04:03:16.884Z,100236.53
2023-01-10T04:05:43.461Z,100234.13
2023-01-10T04:08:10.017Z,100238.53
2023-01-10T04:10:37.737Z,100230.88
2023-01-10T04:13:05.807Z,100241.66
2023-01-10T04:15:32.818Z,100238.91
2023-01-10T04:17:59.757Z,100245.56
2023-01-10T04:20:29.745Z,100257.91
2023-01-10T04:22:56.282Z,100255.38
2023-01-10T04:25:23.511Z,100255.53
2023-01-10T04:27:51.998Z,100256.50
2023-01-10T04:30:19.852Z,100271.41
2023-01-10T04:32:47.842Z,100270.25
2023-01-10T04:35:14.881Z,100278.19
2023-01-10T04:37:41.367Z,100281.06
2023-01-10T04:40:08.662Z,100277.28
2023-01-10T04:42:35.216Z,100283.31
2023-01-10T04:45:01.745Z,100286.50
2023-01-10T04:47:28.290Z,100294.81
2023-01-10T04:49:54.870Z,100301.81
2023-01-10T04:52:21.758Z,100302.09
2023-01-10T04:54:48.293Z,100298.06
2023-01-10T04:57:14.823Z,100305.84
2023-01-10T04:59:41.344Z,100302.22
2023-01-10T05:02:08.011Z,100312.47
2023-01-10T05:04:34.602Z,100318.94
2023-01-10T05:07:01.458Z,100317.94
2023-01-10T05:09:27.988Z,100322.88
2023-01-10T05:11:55.284Z,100325.69
2023-01-10T05:14:22.025Z,100327.22
2023-01-10T05:16:48.578Z,100324.97
2023-01-10T05:19:15.137Z,100332.13
2023-01-10T05:21:41.631Z,100330.81
2023-01-10T05:24:09.258Z,100342.00
2023-01-10T05:26:35.786Z,100347.97
2023-01-10T05:29:02.476Z,100345.47
2023-01-10T05:31:29.297Z,100356.44
2023-01-10T05:33:55.831Z,100358.88
2023-01-10T05:36:22.415Z,100375.19
2023-01-10T05:38:49.008Z,100381.88
2023-01-10T05:41:15.551Z,100376.44
2023-01-10T05:43:42.242Z,100370.31
2023-01-10T05:46:09.124Z,100390.41
2023-01-10T05:48:36.170Z,100399.22
2023-01-10T05:51:03.673Z,100400.47
2023-01-10T05:53:30.174Z,100410.78
2023-01-10T05:55:58.657Z,100406.91
2023-01-10T05:58:25.627Z,100405.75
2023-01-10T06:00:52.893Z,100414.44
2023-01-10T06:03:19.520Z,100414.81
2023-01-10T06:05:48.649Z,100423.84
2023-01-10T06:08:15.975Z,100435.16
2023-01-10T06:10:43.306Z,100437.59
2023-01-10T06:13:10.388Z,100438.53
2023-01-10T06:15:37.171Z,100446.13
2023-01-10T06:18:04.056Z,100444.00
2023-01-10T06:20:31.055Z,100457.31
2023-01-10T06:23:00.944Z,100454.50
2023-01-10T06:25:29.237Z,100457.56
2023-01-10T06:27:56.330Z,100460.91
2023-01-10T06:30:23.220Z,100459.19
2023-01-10T06:32:50.737Z,100464.03
2023-01-10T06:35:19.825Z,100474.25
2023-01-10T06:37:46.325Z,100472.75
2023-01-10T06:40:12.893Z,100477.06
2023-01-10T06:42:40.486Z,100486.94
2023-01-10T06:45:07.344Z,100487.22
2023-01-10T06:47:33.984Z,100494.84
2023-01-10T06:50:00.524Z,100496.00
2023-01-10T06:52:27.635Z,100499.31
2023-01-10T06:54:54.191Z,100498.78
2023-01-10T06:57:21.316Z,100498.84
2023-01-10T06:59:47.919Z,100496.88
2023-01-10T07:02:14.585Z,100506.91
2023-01-10T07:04:41.646Z,100502.22
2023-01-10T07:07:08.190Z,100511.31
2023-01-10T07:09:34.714Z,100511.44
2023-01-10T07:12:01.422Z,100511.16
2023-01-10T07:14:27.976Z,100507.69
2023-01-10T07:16:54.576Z,100510.88
2023-01-10T07:19:21.332Z,100516.81
2023-01-10T07:21:47.873Z,100521.50
2023-01-10T07:24:14.602Z,100515.25
2023-01-10T07:26:41.510Z,100524.44
2023-01-10T07:29:08.285Z,100541.28
2023-01-10T07:31:34.955Z,100550.16
2023-01-10T07:34:01.559Z,100543.00
2023-01-10T07:36:28.124Z,100559.16
2023-01-10T07:38:54.892Z,100562.78
2023-01-10T07:41:21.377Z,100555.09
2023-01-10T07:43:49.024Z,100556.41
2023-01-10T07:46:16.025Z,100560.38
2023-01-10T07:48:42.632Z,100565.22
2023-01-10T07:51:10.000Z,100563.13
2023-01-10T07:53:36.911Z,100566.31
2023-01-10T07:56:03.925Z,100562.22
2023-01-10T07:58:31.038Z,100578.09
2023-01-10T08:01:02.530Z,100580.75
2023-01-10T08:03:33.704Z,100567.41
2023-01-10T08:06:02.443Z,100574.94
2023-01-10T08:08:29.586Z,100575.69
2023-01-10T08:10:57.204Z,100581.19
2023-01-10T08:13:24.184Z,100580.00
2023-01-10T08:15:51.764Z,100583.16
2023-01-10T08:18:20.664Z,100587.06
2023-01-10T08:20:49.620Z,100593.53
2023-01-10T08:23:16.971Z,100600.81
2023-01-10T08:25:44.015Z,100602.22
2023-01-10T08:28:11.477Z,100610.13
2023-01-10T08:30:38.845Z,100611.53
2023-01-10T08:33:06.854Z,100614.78
2023-01-10T08:35:41.605Z,100610.69
2023-01-10T08:38:09.485Z,100610.38
2023-01-10T08:40:36.073Z,100608.56
2023-01-10T08:43:05.057Z,100598.88
2023-01-10T08:45:32.472Z,100580.06
2023-01-10T08:47:59.128Z,100579.34
2023-01-10T08:50:26.085Z,100580.19
2023-01-10T08:52:52.625Z,100587.31
2023-01-10T08:55:20.511Z,100582.94
2023-01-10T08:57:47.066Z,100584.81
2023-01-10T09:00:14.949Z,100587.06
2023-01-10T09:02:42.054Z,100598.31
2023-01-10T09:05:18.525Z,100598.81
2023-01-10T09:07:52.852Z,100608.13
2023-01-10T09:10:19.448Z,100614.97
2023-01-10T09:12:54.626Z,100613.41
2023-01-10T09:15:26.936Z,100610.84
2023-01-10T09:17:58.307Z,100623.88
2023-01-10T09:20:27.044Z,100633.59
2023-01-10T09:22:54.017Z,100643.59
2023-01-10T09:25:21.110Z,100648.34
2023-01-10T09:27:47.629Z,100649.41
2023-01-10T09:30:14.629Z,100648.59
2023-01-10T09:32:41.246Z,100652.31
2023-01-10T09:35:08.507Z,100645.53
2023-01-10T09:37:35.009Z,100645.81
2023-01-10T09:40:01.563Z,100652.31
2023-01-10T09:42:47.572Z,100657.09
2023-01-10T09:45:32.846Z,100653.72
2023-01-10T09:48:09.435Z,100667.34
2023-01-10T09:51:23.690Z,100664.66
2023-01-10T09:53:57.777Z,100670.84
2023-01-10T09:56:29.322Z,100678.09
2023-01-10T09:58:57.359Z,100676.91
2023-01-10T10:01:29.349Z,100682.97
2023-01-10T10:04:04.963Z,100689.38
2023-01-10T10:06:34.360Z,100689.44
2023-01-10T10:09:03.628Z,100679.31
2023-01-10T10:11:53.114Z,100669.16
2023-01-10T10:14:28.852Z,100668.16
2023-01-10T10:17:20.050Z,100673.66
2023-01-10T10:20:03.154Z,100669.44
2023-01-10T10:23:02.251Z,100665.78
2023-01-10T10:25:56.518Z,100666.50
2023-01-10T10:28:54.963Z,100677.22
2023-01-10T10:31:39.955Z,100679.91
2023-01-10T10:34:36.400Z,100676.16
2023-01-10T10:37:21.519Z,100686.81
2023-01-10T10:40:03.833Z,100687.59
2023-01-10T10:42:38.505Z,100689.16
2023-01-10T10:45:15.192Z,100682.91
2023-01-10T10:47:50.269Z,100690.00
2023-01-10T10:50:35.007Z,100687.59
2023-01-10T10:53:05.331Z,100685.63
2023-01-10T10:55:36.327Z,100691.16
2023-01-10T10:58:05.780Z,100702.06
2023-01-10T11:00:32.518Z,100698.75
2023-01-10T11:03:05.344Z,100695.63
2023-01-10T11:05:44.438Z,100684.66
2023-01-10T11:08:14.025Z,100695.59
2023-01-10T11:10:44.633Z,100686.94
2023-01-10T11:13:22.272Z,100686.91
2023-01-10T11:15:50.342Z,100695.91
2023-01-10T11:18:20.942Z,100690.31
2023-01-10T11:21:04.722Z,100690.72
2023-01-10T11:23:40.556Z,100697.03
2023-01-10T11:26:10.749Z,100693.50
2023-01-10T11:28:38.185Z,100699.00
2023-01-10T11:31:04.778Z,100691.97
2023-01-10T11:33:35.826Z,100690.19
2023-01-10T11:36:08.783Z,100690.44
2023-01-10T11:38:35.373Z,100689.31
2023-01-10T11:41:16.917Z,100693.81
2023-01-10T11:43:43.479Z,100692.06
2023-01-10T11:46:17.805Z,100691.50
2023-01-10T11:49:05.515Z,100694.34
2023-01-10T11:52:25.925Z,100685.06
2023-01-10T11:55:00.056Z,100692.88
2023-01-10T11:57:30.318Z,100694.03
2023-01-10T12:00:01.083Z,100693.03
2023-01-10T12:02:32.865Z,100689.53
2023-01-10T12:05:02.738Z,100695.06
2023-01-10T12:07:29.444Z,100699.69
2023-01-10T12:10:01.400Z,100694.34
2023-01-10T12:12:35.099Z,100691.44
2023-01-10T12:15:23.125Z,100696.31
2023-01-10T12:17:50.029Z,100695.88
2023-01-10T12:20:16.926Z,100694.94
2023-01-10T12:22:47.366Z,100692.50
2023-01-10T12:25:35.989Z,100695.91
2023-01-10T12:28:02.521Z,100694.41
2023-01-10T12:30:35.757Z,100691.50
2023-01-10T12:33:19.304Z,100692.16
2023-01-10T12:36:37.227Z,100694.56
2023-01-10T12:39:14.305Z,100683.31
2023-01-10T12:42:22.955Z,100684.66
2023-01-10T12:44:58.345Z,100692.44
2023-01-10T12:47:25.194Z,100689.13
2023-01-10T12:50:13.932Z,100692.38
2023-01-10T12:52:48.917Z,100681.88
2023-01-10T12:55:20.803Z,100678.41
2023-01-10T12:57:51.744Z,100679.88
2023-01-10T13:00:26.544Z,100680.97
2023-01-10T13:02:57.391Z,100689.44
2023-01-10T13:05:27.067Z,100690.22
2023-01-10T13:08:04.600Z,100693.38
2023-01-10T13:10:33.587Z,100676.63
2023-01-10T13:13:12.424Z,100689.41
2023-01-10T13:15:47.335Z,100686.94
2023-01-10T13:18:29.324Z,100693.09
2023-01-10T13:21:13.656Z,100678.47
2023-01-10T13:23:48.623Z,100686.91
2023-01-10T13:26:15.587Z,100680.00
2023-01-10T13:28:55.996Z,100674.81
2023-01-10T13:31:29.568Z,100678.16
2023-01-10T13:34:00.681Z,100677.06
2023-01-10T13:36:30.032Z,100670.72
2023-01-10T13:38:58.943Z,100668.31
2023-01-10T13:42:16.071Z,100682.38
2023-01-10T13:45:00.978Z,100670.28
2023-01-10T13:47:39.568Z,100680.06
2023-01-10T13:50:42.145Z,100674.28
2023-01-10T13:53:08.674Z,100679.09
2023-01-10T13:55:53.716Z,100687.69
2023-01-10T13:58:43.404Z,100690.00
2023-01-10T14:01:55.015Z,100691.66
2023-01-10T14:04:31.367Z,100691.97
2023-01-10T14:07:04.033Z,100694.22
2023-01-10T14:09:36.396Z,100692.22
2023-01-10T14:12:07.670Z,100690.81
2023-01-10T14:14:38.103Z,100690.84
2023-01-10T14:17:22.884Z,100681.13
2023-01-10T14:20:00.861Z,100674.19
2023-01-10T14:22:30.983Z,100669.44
2023-01-10T14:25:00.099Z,100677.06
2023-01-10T14:27:38.036Z,100671.56
2023-01-10T14:30:07.400Z,100665.81
2023-01-10T14:32:38.362Z,100663.16
2023-01-10T14:35:10.850Z,100664.28
2023-01-10T14:37:44.984Z,100666.94
2023-01-10T14:40:15.384Z,100658.75
2023-01-10T14:42:42.002Z,100659.34
2023-01-10T14:45:36.562Z,100658.75
2023-01-10T14:48:23.778Z,100653.00
2023-01-10T14:50:50.652Z,100644.81
2023-01-10T14:53:28.908Z,100645.81
2023-01-10T14:55:55.741Z,100637.41
2023-01-10T14:58:22.882Z,100637.22
2023-01-10T15:00:51.741Z,100640.34
2023-01-10T15:03:20.594Z,100635.72
2023-01-10T15:05:54.492Z,100633.19
2023-01-10T15:08:28.226Z,100629.53
2023-01-10T15:11:00.714Z,100627.13
2023-01-10T15:13:29.583Z,100626.44
2023-01-10T15:15:57.530Z,100633.31
2023-01-10T15:18:28.487Z,100626.97
2023-01-10T15:20:56.852Z,100628.28
2023-01-10T15:23:27.116Z,100630.66
2023-01-10T15:26:00.167Z,100631.91
2023-01-10T15:28:29.914Z,100628.94
2023-01-10T15:30:58.280Z,100628.09
2023-01-10T15:33:29.943Z,100630.81
2023-01-10T15:36:03.188Z,100630.56
2023-01-10T15:38:34.519Z,100620.38
2023-01-10T15:41:05.880Z,100630.16
2023-01-10T15:43:34.535Z,100619.69
2023-01-10T15:46:04.970Z,100612.91
2023-01-10T15:48:37.412Z,100611.94
2023-01-10T15:51:13.426Z,100613.16
2023-01-10T15:54:14.180Z,100615.38
2023-01-10T15:56:48.262Z,100614.16
2023-01-10T15:59:36.836Z,100605.88
2023-01-10T16:02:13.455Z,100598.00
2023-01-10T16:04:40.658Z,100604.16
2023-01-10T16:07:15.243Z,100600.28
2023-01-10T16:09:42.608Z,100598.88
2023-01-10T16:12:42.996Z,100589.91
2023-01-10T16:15:17.686Z,100580.94
2023-01-10T16:17:44.269Z,100585.53
2023-01-10T16:20:16.012Z,100585.00
2023-01-10T16:22:43.813Z,100572.19
2023-01-10T16:25:20.460Z,100574.97
2023-01-10T16:27:47.352Z,100579.16
2023-01-10T16:30:28.993Z,100579.72
2023-01-10T16:32:57.324Z,100571.06
2023-01-10T16:35:24.891Z,100562.06
2023-01-10T16:37:56.287Z,100553.63
2023-01-10T16:40:28.700Z,100544.03
2023-01-10T16:43:14.787Z,100537.91
2023-01-10T16:45:41.345Z,100525.41
2023-01-10T16:48:08.162Z,100524.72
2023-01-10T16:50:35.024Z,100524.00
2023-01-10T16:53:01.671Z,100521.91
2023-01-10T16:55:37.220Z,100518.84
2023-01-10T16:58:03.841Z,100513.97
2023-01-10T17:00:30.387Z,100516.97
2023-01-10T17:02:58.247Z,100505.53
2023-01-10T17:05:25.138Z,100498.22
2023-01-10T17:07:51.639Z,100503.31
2023-01-10T17:10:18.183Z,100495.34
2023-01-10T17:12:45.655Z,100489.13
2023-01-10T17:15:14.570Z,100495.59
2023-01-10T17:17:44.587Z,100477.28
2023-01-10T17:20:15.900Z,100477.03
2023-01-10T17:22:43.156Z,100475.38
2023-01-10T17:25:15.704Z,100474.47
2023-01-10T17:27:43.257Z,100469.72
2023-01-10T17:30:11.634Z,100464.03
2023-01-10T17:32:38.471Z,100468.31
2023-01-10T17:35:05.691Z,100461.41
2023-01-10T17:37:32.247Z,100455.94
2023-01-10T17:39:58.969Z,100451.88
2023-01-10T17:42:48.318Z,100444.31
2023-01-10T17:45:14.819Z,100457.31
2023-01-10T17:47:41.351Z,100443.53
2023-01-10T17:50:08.323Z,100437.22
2023-01-10T17:52:35.233Z,100442.88
2023-01-10T17:55:03.368Z,100448.69
2023-01-10T17:57:29.942Z,100431.72
2023-01-10T17:59:56.730Z,100433.56
2023-01-10T18:02:23.412Z,100423.41
2023-01-10T18:04:50.088Z,100420.28
2023-01-10T18:07:16.639Z,100410.03
2023-01-10T18:09:43.148Z,100410.63
2023-01-10T18:12:09.869Z,100412.75
2023-01-10T18:14:36.408Z,100412.22
2023-01-10T18:17:05.225Z,100414.66
2023-01-10T18:19:32.370Z,100408.03
2023-01-10T18:21:58.907Z,100409.75
2023-01-10T18:24:25.831Z,100399.78
2023-01-10T18:26:52.348Z,100395.38
2023-01-10T18:29:19.010Z,100394.81
2023-01-10T18:31:45.693Z,100404.31
2023-01-10T18:34:12.204Z,100392.50
2023-01-10T18:36:40.022Z,100389.69
2023-01-10T18:39:06.630Z,100400.78
2023-01-10T18:41:33.165Z,100391.81
2023-01-10T18:44:00.671Z,100396.25
2023-01-10T18:46:28.592Z,100402.16
2023-01-10T18:48:55.711Z,100392.56
2023-01-10T18:51:23.629Z,100395.81
2023-01-10T18:53:52.688Z,100389.56
2023-01-10T18:56:19.762Z,100401.00
2023-01-10T18:58:46.389Z,100388.47
2023-01-10T19:01:17.094Z,100397.38
2023-01-10T19:03:44.398Z,100392.06
2023-01-10T19:06:16.714Z,100386.28
2023-01-10T19:08:45.069Z,100378.88
2023-01-10T19:11:15.424Z,100382.63
2023-01-10T19:13:47.209Z,100379.44
2023-01-10T19:16:19.551Z,100378.03
2023-01-10T19:18:52.014Z,100381.97
2023-01-10T19:21:19.057Z,100381.75
2023-01-10T19:23:47.910Z,100363.09
2023-01-10T19:26:15.387Z,100368.88
2023-01-10T19:28:43.137Z,100362.72
2023-01-10T19:31:14.820Z,100362.34
2023-01-10T19:33:43.458Z,100350.22
2023-01-10T19:36:10.838Z,100345.47
2023-01-10T19:38:37.523Z,100343.22
2023-01-10T19:41:04.635Z,100337.63
2023-01-10T19:43:32.514Z,100335.50
2023-01-10T19:45:59.850Z,100314.19
2023-01-10T19:48:26.444Z,100315.91
2023-01-10T19:50:52.982Z,100306.78
2023-01-10T19:53:23.745Z,100296.53
2023-01-10T19:56:00.195Z,100285.88
2023-01-10T19:58:26.817Z,100288.41
2023-01-10T20:00:53.361Z,100285.50
2023-01-10T20:03:19.965Z,100287.13
2023-01-10T20:05:46.669Z,100281.50
2023-01-10T20:08:13.666Z,100272.13
2023-01-10T20:10:40.225Z,100255.19
2023-01-10T20:13:08.404Z,100257.25
2023-01-10T20:15:36.178Z,100245.53
2023-01-10T20:18:02.688Z,100237.28
2023-01-10T20:20:29.294Z,100239.69
2023-01-10T20:22:55.855Z,100229.53
2023-01-10T20:25:22.438Z,100232.00
2023-01-10T20:27:49.100Z,100219.72
2023-01-10T20:30:16.121Z,100224.84
2023-01-10T20:32:42.648Z,100219.16
2023-01-10T20:35:09.378Z,100215.31
2023-01-10T20:37:35.933Z,100216.34
2023-01-10T20:40:04.306Z,100205.00
2023-01-10T20:42:32.453Z,100198.19
2023-01-10T20:44:58.994Z,100189.09
2023-01-10T20:47:27.013Z,100178.13
2023-01-10T20:49:53.562Z,100164.06
2023-01-10T20:52:22.046Z,100157.97
2023-01-10T20:54:48.644Z,100151.09
2023-01-10T20:57:15.178Z,100151.94
2023-01-10T20:59:41.699Z,100148.19
2023-01-10T21:02:10.578Z,100144.69
2023-01-10T21:04:37.242Z,100145.09
2023-01-10T21:07:05.654Z,100142.81
2023-01-10T21:09:32.294Z,100154.09
2023-01-10T21:12:13.623Z,100154.09
2023-01-10T21:14:45.295Z,100145.09
2023-01-10T21:17:11.896Z,100147.16
2023-01-10T21:19:38.641Z,100136.13
2023-01-10T21:22:05.422Z,100122.13
2023-01-10T21:24:31.926Z,100116.16
2023-01-10T21:26:58.439Z,100123.00
2023-01-10T21:29:24.962Z,100113.22
2023-01-10T21:31:53.030Z,100094.19
2023-01-10T21:34:19.555Z,100093.16
2023-01-10T21:36:46.077Z,100088.59
2023-01-10T21:39:12.605Z,100089.94
2023-01-10T21:41:57.897Z,100092.88
2023-01-10T21:44:25.759Z,100083.63
2023-01-10T21:46:52.347Z,100080.72
2023-01-10T21:49:19.007Z,100073.78
2023-01-10T21:51:45.545Z,100075.56
2023-01-10T21:54:12.293Z,100077.94
2023-01-10T21:56:38.834Z,100064.94
2023-01-10T21:59:05.343Z,100060.91
2023-01-10T22:01:31.971Z,100055.44
2023-01-10T22:03:58.882Z,100060.56
2023-01-10T22:06:25.450Z,100048.88
2023-01-10T22:08:52.942Z,100054.31
2023-01-10T22:11:19.719Z,100046.03
2023-01-10T22:13:46.971Z,100044.81
2023-01-10T22:16:14.035Z,100041.56
2023-01-10T22:18:40.613Z,100038.81
2023-01-10T22:21:07.305Z,100040.25
2023-01-10T22:23:34.613Z,100032.19
2023-01-10T22:26:04.022Z,100034.97
2023-01-10T22:28:30.870Z,100030.66
2023-01-10T22:30:57.785Z,100024.19
2023-01-10T22:33:27.533Z,100025.81
2023-01-10T22:35:54.051Z,100022.44
2023-01-10T22:38:21.119Z,100015.63
2023-01-10T22:40:47.656Z,100010.09
2023-01-10T22:43:14.185Z,100008.59
2023-01-10T22:45:44.228Z,99999.59
2023-01-10T22:48:10.813Z,99995.13
2023-01-10T22:50:37.668Z,100002.69
2023-01-10T22:53:04.277Z,99979.53
2023-01-10T22:55:30.859Z,99976.28
2023-01-10T22:57:57.625Z,99980.06
2023-01-10T23:00:24.166Z,99982.16
2023-01-10T23:02:50.728Z,99975.44
2023-01-10T23:05:17.425Z,99972.56
2023-01-10T23:07:43.949Z,99969.50
2023-01-10T23:10:28.354Z,99967.00
2023-01-10T23:12:56.107Z,99953.56
2023-01-10T23:15:22.621Z,99948.78
2023-01-10T23:17:49.257Z,99943.75
2023-01-10T23:20:16.711Z,99939.53
2023-01-10T23:22:43.493Z,99974.03
2023-01-10T23:25:10.276Z,99985.28
2023-01-10T23:27:38.339Z,99961.22
2023-01-10T23:30:10.410Z,99938.00
2023-01-10T23:32:37.118Z,99944.16
2023-01-10T23:35:04.101Z,99929.59
2023-01-10T23:37:30.618Z,99916.28
2023-01-10T23:39:57.178Z,99917.44
2023-01-10T23:42:23.675Z,99913.72
2023-01-10T23:44:50.212Z,99908.84
2023-01-10T23:47:16.742Z,99885.34
2023-01-10T23:49:43.274Z,99902.41
2023-01-10T23:52:09.810Z,99905.88
2023-01-10T23:54:36.791Z,99912.97
2023-01-10T23:57:03.692Z,99899.75
2023-01-10T23:59:30.277Z,99901.84
